createdAt,value
2023-02-19T00:01:48.505Z,58.38
2023-02-19T00:04:18.024Z,59.28
2023-02-19T00:06:48.706Z,59.20
2023-02-19T00:09:18.123Z,58.98
2023-02-19T00:11:47.851Z,58.43
2023-02-19T00:14:20.027Z,59.04
2023-02-19T00:16:48.784Z,59.80
2023-02-19T00:19:18.931Z,59.62
2023-02-19T00:21:47.577Z,59.68
2023-02-19T00:24:16.262Z,59.35
2023-02-19T00:26:45.522Z,60.21
2023-02-19T00:29:15.562Z,60.04
2023-02-19T00:31:45.824Z,60.47
2023-02-19T00:34:15.499Z,60.51
2023-02-19T00:36:44.565Z,60.50
2023-02-19T00:39:16.211Z,60.94
2023-02-19T00:41:44.671Z,60.65
2023-02-19T00:44:13.845Z,60.33
2023-02-19T00:46:45.147Z,60.54
2023-02-19T00:49:18.489Z,60.41
2023-02-19T00:51:47.167Z,60.63
2023-02-19T00:54:15.628Z,60.25
2023-02-19T00:56:44.155Z,60.71
2023-02-19T00:59:12.673Z,59.88
2023-02-19T01:01:40.726Z,60.82
2023-02-19T01:04:10.221Z,61.33
2023-02-19T01:06:38.482Z,61.35
2023-02-19T01:09:07.175Z,61.79
2023-02-19T01:11:35.433Z,61.18
2023-02-19T01:14:05.041Z,61.56
2023-02-19T01:16:33.700Z,61.75
2023-02-19T01:19:01.871Z,62.24
2023-02-19T01:21:32.025Z,61.63
2023-02-19T01:24:00.140Z,61.89
2023-02-19T01:26:30.337Z,62.96
2023-02-19T01:28:58.823Z,61.71
2023-02-19T01:31:27.210Z,61.61
2023-02-19T01:33:57.856Z,61.42
2023-02-19T01:36:27.017Z,61.06
2023-02-19T01:38:57.231Z,60.41
2023-02-19T01:41:27.281Z,60.81
2023-02-19T01:44:01.554Z,60.51
2023-02-19T01:46:30.634Z,60.99
2023-02-19T01:49:04.708Z,61.22
2023-02-19T01:51:34.955Z,60.88
2023-02-19T01:54:07.091Z,61.02
2023-02-19T01:56:38.450Z,60.79
2023-02-19T01:59:08.597Z,60.23
2023-02-19T02:01:38.762Z,61.07
2023-02-19T02:04:10.998Z,60.33
2023-02-19T02:06:45.005Z,60.16
2023-02-19T02:09:33.229Z,60.41
2023-02-19T02:12:01.288Z,59.99
2023-02-19T02:14:32.600Z,60.40
2023-02-19T02:17:17.106Z,60.32
2023-02-19T02:20:12.269Z,61.12
2023-02-19T02:22:48.893Z,60.36
2023-02-19T02:25:56.268Z,60.90
2023-02-19T02:28:38.574Z,61.25
2023-02-19T02:31:14.381Z,61.96
2023-02-19T02:33:49.613Z,62.08
2023-02-19T02:36:21.756Z,62.41
2023-02-19T02:38:52.941Z,63.28
2023-02-19T02:41:22.067Z,62.94
2023-02-19T02:43:50.125Z,62.99
2023-02-19T02:46:24.062Z,62.79
2023-02-19T02:48:56.496Z,62.32
2023-02-19T02:51:28.749Z,62.11
2023-02-19T02:54:17.811Z,61.63
2023-02-19T02:56:47.765Z,61.15
2023-02-19T02:59:19.736Z,61.70
2023-02-19T03:02:11.150Z,61.32
2023-02-19T03:05:02.138Z,61.25
2023-02-19T03:07:36.587Z,60.54
2023-02-19T03:10:09.471Z,60.65
2023-02-19T03:12:59.332Z,61.33
2023-02-19T03:15:49.361Z,61.65
2023-02-19T03:18:37.992Z,60.95
2023-02-19T03:21:08.809Z,61.71
2023-02-19T03:23:55.234Z,61.69
2023-02-19T03:26:24.170Z,60.89
2023-02-19T03:29:11.773Z,60.62
2023-02-19T03:31:43.264Z,60.98
2023-02-19T03:34:18.666Z,61.56
2023-02-19T03:36:53.715Z,61.00
2023-02-19T03:39:23.736Z,61.24
2023-02-19T03:41:59.666Z,61.07
2023-02-19T03:44:38.262Z,62.09
2023-02-19T03:47:16.661Z,61.73
2023-02-19T03:49:50.690Z,62.15
2023-02-19T03:52:25.032Z,61.03
2023-02-19T03:55:00.029Z,61.33
2023-02-19T03:57:35.112Z,60.99
2023-02-19T04:00:10.932Z,60.82
2023-02-19T04:02:43.955Z,62.22
2023-02-19T04:05:17.894Z,62.01
2023-02-19T04:07:49.000Z,61.51
2023-02-19T04:10:19.610Z,62.18
2023-02-19T04:12:51.611Z,61.83
2023-02-19T04:15:24.516Z,62.19
2023-02-19T04:17:57.001Z,62.22
2023-02-19T04:20:31.145Z,62.88
2023-02-19T04:22:59.904Z,62.73
2023-02-19T04:25:30.310Z,63.18
2023-02-19T04:27:59.026Z,63.75
2023-02-19T04:30:27.361Z,64.15
2023-02-19T04:32:55.468Z,64.13
2023-02-19T04:35:23.661Z,64.27
2023-02-19T04:37:53.186Z,64.06
2023-02-19T04:40:21.260Z,63.54
2023-02-19T04:42:49.447Z,63.25
2023-02-19T04:45:17.782Z,63.07
2023-02-19T04:47:45.825Z,63.30
2023-02-19T04:50:14.297Z,62.85
2023-02-19T04:52:42.357Z,63.44
2023-02-19T04:55:11.913Z,63.75
2023-02-19T04:57:42.957Z,64.11
2023-02-19T05:00:14.569Z,64.42
2023-02-19T05:02:42.724Z,64.31
2023-02-19T05:05:10.813Z,63.81
2023-02-19T05:07:38.880Z,64.13
2023-02-19T05:10:08.403Z,65.15
2023-02-19T05:12:37.893Z,64.98
2023-02-19T05:15:06.366Z,64.11
2023-02-19T05:17:35.306Z,63.85
2023-02-19T05:20:03.544Z,64.04
2023-02-19T05:22:31.769Z,63.71
2023-02-19T05:25:00.132Z,63.47
2023-02-19T05:27:28.231Z,64.72
2023-02-19T05:29:57.593Z,64.80
2023-02-19T05:32:25.719Z,65.08
2023-02-19T05:34:53.777Z,64.74
2023-02-19T05:37:22.037Z,64.27
2023-02-19T05:39:50.336Z,63.50
2023-02-19T05:42:18.383Z,63.51
2023-02-19T05:44:46.484Z,63.51
2023-02-19T05:47:16.041Z,63.51
2023-02-19T05:49:44.042Z,63.52
2023-02-19T05:52:12.081Z,63.46
2023-02-19T05:54:40.284Z,63.60
2023-02-19T05:57:08.500Z,63.02
2023-02-19T05:59:36.545Z,63.72
2023-02-19T06:02:04.708Z,63.42
2023-02-19T06:04:34.096Z,63.20
2023-02-19T06:07:02.264Z,63.16
2023-02-19T06:09:30.365Z,63.17
2023-02-19T06:11:58.453Z,63.00
2023-02-19T06:14:26.827Z,63.46
2023-02-19T06:16:54.864Z,63.42
2023-02-19T06:19:22.882Z,63.13
2023-02-19T06:21:52.753Z,63.07
2023-02-19T06:24:20.787Z,63.14
2023-02-19T06:26:48.808Z,63.53
2023-02-19T06:29:18.224Z,63.60
2023-02-19T06:31:46.702Z,63.53
2023-02-19T06:34:14.845Z,63.04
2023-02-19T06:36:42.903Z,63.22
2023-02-19T06:39:12.315Z,63.50
2023-02-19T06:41:40.505Z,63.14
2023-02-19T06:44:08.619Z,63.56
2023-02-19T06:46:36.951Z,63.70
2023-02-19T06:49:07.534Z,63.64
2023-02-19T06:51:35.781Z,63.27
2023-02-19T06:54:03.931Z,63.58
2023-02-19T06:56:34.837Z,63.65
2023-02-19T06:59:04.943Z,63.76
2023-02-19T07:01:34.893Z,63.38
2023-02-19T07:04:03.150Z,63.89
2023-02-19T07:06:31.948Z,63.90
2023-02-19T07:09:00.520Z,63.83
2023-02-19T07:11:31.148Z,64.02
2023-02-19T07:14:05.304Z,63.89
2023-02-19T07:16:33.615Z,63.56
2023-02-19T07:19:02.339Z,64.09
2023-02-19T07:21:31.281Z,64.55
2023-02-19T07:23:59.540Z,63.64
2023-02-19T07:26:27.682Z,62.89
2023-02-19T07:28:56.036Z,63.00
2023-02-19T07:31:26.043Z,62.83
2023-02-19T07:33:54.190Z,61.87
2023-02-19T07:36:24.014Z,61.89
2023-02-19T07:38:56.117Z,62.24
2023-02-19T07:41:25.318Z,62.18
2023-02-19T07:43:54.520Z,61.67
2023-02-19T07:46:23.523Z,61.58
2023-02-19T07:48:53.105Z,60.88
2023-02-19T07:51:22.451Z,61.38
2023-02-19T07:53:51.852Z,60.82
2023-02-19T07:56:21.096Z,60.19
2023-02-19T07:58:49.642Z,58.93
2023-02-19T08:01:19.912Z,59.25
2023-02-19T08:03:50.082Z,58.52
2023-02-19T08:06:20.464Z,57.78
2023-02-19T08:08:48.767Z,57.73
2023-02-19T08:11:34.775Z,57.07
2023-02-19T08:14:02.879Z,57.36
2023-02-19T08:16:42.469Z,57.85
2023-02-19T08:19:11.674Z,57.24
2023-02-19T08:21:46.825Z,57.07
2023-02-19T08:24:15.163Z,56.58
2023-02-19T08:26:43.164Z,56.39
2023-02-19T08:29:11.174Z,55.68
2023-02-19T08:31:39.647Z,55.23
2023-02-19T08:34:10.680Z,54.10
2023-02-19T08:36:39.292Z,54.38
2023-02-19T08:39:11.672Z,53.76
2023-02-19T08:41:39.687Z,53.13
2023-02-19T08:44:07.829Z,52.78
2023-02-19T08:46:38.794Z,52.66
2023-02-19T08:49:07.041Z,51.73
2023-02-19T08:51:35.065Z,52.70
2023-02-19T08:54:04.760Z,53.37
2023-02-19T08:56:34.345Z,53.64
2023-02-19T08:59:02.604Z,52.61
2023-02-19T09:01:30.808Z,53.15
2023-02-19T09:03:59.097Z,52.95
2023-02-19T09:06:27.327Z,52.25
2023-02-19T09:08:55.607Z,52.35
2023-02-19T09:11:23.820Z,53.02
2023-02-19T09:13:53.773Z,52.66
2023-02-19T09:16:22.049Z,52.90
2023-02-19T09:18:50.139Z,52.20
2023-02-19T09:21:18.147Z,51.96
2023-02-19T09:23:46.134Z,52.22
2023-02-19T09:26:14.222Z,52.40
2023-02-19T09:28:43.202Z,53.68
2023-02-19T09:31:15.070Z,53.20
2023-02-19T09:33:44.921Z,54.29
2023-02-19T09:36:16.464Z,55.19
2023-02-19T09:38:44.705Z,55.89
2023-02-19T09:41:19.319Z,55.35
2023-02-19T09:43:47.762Z,55.95
2023-02-19T09:46:26.109Z,56.09
2023-02-19T09:48:55.806Z,57.24
2023-02-19T09:51:26.135Z,58.62
2023-02-19T09:53:56.290Z,58.25
2023-02-19T09:56:26.356Z,58.42
2023-02-19T09:58:57.003Z,60.17
2023-02-19T10:01:29.805Z,59.96
2023-02-19T10:03:57.935Z,60.21
2023-02-19T10:06:29.910Z,61.58
2023-02-19T10:09:12.778Z,62.21
2023-02-19T10:11:41.542Z,63.25
2023-02-19T10:14:16.000Z,62.15
2023-02-19T10:16:47.499Z,63.39
2023-02-19T10:19:16.873Z,63.33
2023-02-19T10:21:45.561Z,63.31
2023-02-19T10:24:21.576Z,64.23
2023-02-19T10:26:51.395Z,64.37
2023-02-19T10:29:19.859Z,65.36
2023-02-19T10:31:49.594Z,64.28
2023-02-19T10:34:23.665Z,63.09
2023-02-19T10:36:54.065Z,62.46
2023-02-19T10:39:42.260Z,63.06
2023-02-19T10:42:21.889Z,63.29
2023-02-19T10:44:55.594Z,64.42
2023-02-19T10:47:27.097Z,63.41
2023-02-19T10:49:58.416Z,62.56
2023-02-19T10:52:29.675Z,63.31
2023-02-19T10:54:59.390Z,61.72
2023-02-19T10:57:35.269Z,62.63
2023-02-19T11:00:20.050Z,61.90
2023-02-19T11:02:49.782Z,62.47
2023-02-19T11:05:21.009Z,62.08
2023-02-19T11:07:53.693Z,61.14
2023-02-19T11:10:31.324Z,61.60
2023-02-19T11:13:02.420Z,61.55
2023-02-19T11:15:33.583Z,62.05
2023-02-19T11:18:08.282Z,62.51
2023-02-19T11:20:36.733Z,61.57
2023-02-19T11:23:15.640Z,60.93
2023-02-19T11:25:47.836Z,61.00
2023-02-19T11:28:28.092Z,62.46
2023-02-19T11:30:56.168Z,63.90
2023-02-19T11:33:28.497Z,63.53
2023-02-19T11:36:18.205Z,63.14
2023-02-19T11:38:46.466Z,61.76
2023-02-19T11:41:22.928Z,61.27
2023-02-19T11:44:10.440Z,60.78
2023-02-19T11:46:45.995Z,60.08
2023-02-19T11:49:30.133Z,59.91
2023-02-19T11:52:20.998Z,60.72
2023-02-19T11:54:54.093Z,60.08
2023-02-19T11:57:39.314Z,60.27
2023-02-19T12:00:25.849Z,60.16
2023-02-19T12:03:25.644Z,60.09
2023-02-19T12:06:24.419Z,60.61
2023-02-19T12:09:21.714Z,60.31
2023-02-19T12:12:27.119Z,60.81
2023-02-19T12:15:20.182Z,60.29
2023-02-19T12:18:11.048Z,60.35
2023-02-19T12:20:47.934Z,60.01
2023-02-19T12:23:49.881Z,59.41
2023-02-19T12:26:24.715Z,59.67
2023-02-19T12:29:07.459Z,59.75
2023-02-19T12:31:58.484Z,60.13
2023-02-19T12:34:49.325Z,58.94
2023-02-19T12:37:34.494Z,58.23
2023-02-19T12:40:19.747Z,58.28
2023-02-19T12:43:03.273Z,57.60
2023-02-19T12:45:36.725Z,56.68
2023-02-19T12:48:13.420Z,56.53
2023-02-19T12:50:43.004Z,56.06
2023-02-19T12:53:28.022Z,56.18
2023-02-19T12:56:00.923Z,56.40
2023-02-19T12:58:33.764Z,56.11
2023-02-19T13:01:02.151Z,56.49
2023-02-19T13:03:34.785Z,56.65
2023-02-19T13:06:09.677Z,56.35
2023-02-19T13:09:03.506Z,56.47
2023-02-19T13:11:38.778Z,56.75
2023-02-19T13:14:15.534Z,56.68
2023-02-19T13:16:47.885Z,56.44
2023-02-19T13:19:16.163Z,56.00
2023-02-19T13:22:06.628Z,56.10
2023-02-19T13:24:40.265Z,56.80
2023-02-19T13:27:22.822Z,56.51
2023-02-19T13:30:23.856Z,56.02
2023-02-19T13:33:00.844Z,55.68
2023-02-19T13:36:01.587Z,56.13
2023-02-19T13:38:30.031Z,54.88
2023-02-19T13:41:00.233Z,55.15
2023-02-19T13:43:34.960Z,54.93
2023-02-19T13:46:06.869Z,54.83
2023-02-19T13:48:37.776Z,55.84
2023-02-19T13:51:39.974Z,56.69
2023-02-19T13:54:26.330Z,56.75
2023-02-19T13:57:29.630Z,56.10
2023-02-19T14:00:00.215Z,56.01
2023-02-19T14:02:34.259Z,55.98
2023-02-19T14:05:05.722Z,56.07
2023-02-19T14:07:48.997Z,55.82
2023-02-19T14:10:46.708Z,56.13
2023-02-19T14:13:53.117Z,57.63
2023-02-19T14:16:47.079Z,58.92
2023-02-19T14:19:15.964Z,57.71
2023-02-19T14:21:45.628Z,57.96
2023-02-19T14:24:16.198Z,57.66
2023-02-19T14:26:44.686Z,58.41
2023-02-19T14:29:16.624Z,58.26
2023-02-19T14:31:48.070Z,58.81
2023-02-19T14:34:22.469Z,57.81
2023-02-19T14:36:54.365Z,58.08
2023-02-19T14:39:25.753Z,57.24
2023-02-19T14:41:57.584Z,56.87
2023-02-19T14:44:28.400Z,56.50
2023-02-19T14:47:01.854Z,55.84
2023-02-19T14:49:37.460Z,56.44
2023-02-19T14:52:09.477Z,55.67
2023-02-19T14:54:43.244Z,56.29
2023-02-19T14:57:19.287Z,55.90
2023-02-19T14:59:55.536Z,55.79
2023-02-19T15:02:26.203Z,55.83
2023-02-19T15:04:55.052Z,55.41
2023-02-19T15:07:25.936Z,55.82
2023-02-19T15:09:58.680Z,55.46
2023-02-19T15:12:30.861Z,55.74
2023-02-19T15:15:03.221Z,55.61
2023-02-19T15:17:35.061Z,55.50
2023-02-19T15:20:09.876Z,55.64
2023-02-19T15:22:41.462Z,55.26
2023-02-19T15:25:16.990Z,55.36
2023-02-19T15:27:45.349Z,55.35
2023-02-19T15:30:22.675Z,55.92
2023-02-19T15:32:57.690Z,55.64
2023-02-19T15:35:27.787Z,55.04
2023-02-19T15:37:56.285Z,55.63
2023-02-19T15:40:30.318Z,55.67
2023-02-19T15:42:58.998Z,55.33
2023-02-19T15:45:32.575Z,56.51
2023-02-19T15:48:08.779Z,56.89
2023-02-19T15:50:44.108Z,56.47
2023-02-19T15:53:16.792Z,56.88
2023-02-19T15:55:48.684Z,57.11
2023-02-19T15:58:22.368Z,56.81
2023-02-19T16:00:53.519Z,57.56
2023-02-19T16:03:25.382Z,58.36
2023-02-19T16:06:04.732Z,57.43
2023-02-19T16:08:34.224Z,58.10
2023-02-19T16:11:04.269Z,58.32
2023-02-19T16:13:35.085Z,57.79
2023-02-19T16:16:17.144Z,58.14
2023-02-19T16:18:49.746Z,57.12
2023-02-19T16:21:21.808Z,58.01
2023-02-19T16:23:54.639Z,57.88
2023-02-19T16:26:23.171Z,57.60
2023-02-19T16:28:53.536Z,57.38
2023-02-19T16:31:23.779Z,56.87
2023-02-19T16:33:53.474Z,57.27
2023-02-19T16:36:35.549Z,57.27
2023-02-19T16:39:26.134Z,58.13
2023-02-19T16:42:18.241Z,58.98
2023-02-19T16:44:48.156Z,59.60
2023-02-19T16:47:45.133Z,59.14
2023-02-19T16:50:17.212Z,58.74
2023-02-19T16:52:52.810Z,58.97
2023-02-19T16:55:21.298Z,58.68
2023-02-19T16:57:49.475Z,58.26
2023-02-19T17:00:19.249Z,58.58
2023-02-19T17:02:48.587Z,58.43
2023-02-19T17:05:19.667Z,58.34
2023-02-19T17:07:47.892Z,58.59
2023-02-19T17:10:18.117Z,58.78
2023-02-19T17:13:03.559Z,59.25
2023-02-19T17:15:31.663Z,60.08
2023-02-19T17:17:59.708Z,59.18
2023-02-19T17:20:31.649Z,59.43
2023-02-19T17:23:00.021Z,59.21
2023-02-19T17:25:29.618Z,59.09
2023-02-19T17:27:57.838Z,59.23
2023-02-19T17:30:29.093Z,59.77
2023-02-19T17:32:57.478Z,59.32
2023-02-19T17:35:25.987Z,59.42
2023-02-19T17:37:55.706Z,59.75
2023-02-19T17:40:32.857Z,60.04
2023-02-19T17:43:01.396Z,60.49
2023-02-19T17:45:29.992Z,60.43
2023-02-19T17:47:58.314Z,61.28
2023-02-19T17:50:29.089Z,61.09
2023-02-19T17:52:59.387Z,61.45
2023-02-19T17:55:27.768Z,61.88
2023-02-19T17:57:56.247Z,61.93
2023-02-19T18:00:26.176Z,62.57
2023-02-19T18:02:54.983Z,62.88
2023-02-19T18:05:23.478Z,62.87
2023-02-19T18:07:52.324Z,63.29
2023-02-19T18:10:24.555Z,62.72
2023-02-19T18:12:52.862Z,63.27
2023-02-19T18:15:23.133Z,63.91
2023-02-19T18:17:51.338Z,63.62
2023-02-19T18:20:21.897Z,63.88
2023-02-19T18:22:50.109Z,64.19
2023-02-19T18:25:19.387Z,64.23
2023-02-19T18:27:49.346Z,64.26
2023-02-19T18:30:20.306Z,64.70
2023-02-19T18:32:48.933Z,65.31
2023-02-19T18:35:18.340Z,65.43
2023-02-19T18:37:51.496Z,66.45
2023-02-19T18:40:20.314Z,66.23
2023-02-19T18:42:50.083Z,65.61
2023-02-19T18:45:18.768Z,66.76
2023-02-19T18:47:48.494Z,66.76
2023-02-19T18:50:17.107Z,66.47
2023-02-19T18:52:45.575Z,67.13
2023-02-19T18:55:14.097Z,67.26
2023-02-19T18:57:42.410Z,67.00
2023-02-19T19:00:17.366Z,66.94
2023-02-19T19:02:49.740Z,66.70
2023-02-19T19:05:22.716Z,67.28
2023-02-19T19:07:51.291Z,67.01
2023-02-19T19:10:19.953Z,67.17
2023-02-19T19:12:48.465Z,68.27
2023-02-19T19:15:18.975Z,69.53
2023-02-19T19:17:47.420Z,68.92
2023-02-19T19:20:17.310Z,69.08
2023-02-19T19:22:45.599Z,68.72
2023-02-19T19:25:13.851Z,69.41
2023-02-19T19:27:42.074Z,68.73
2023-02-19T19:30:10.649Z,69.23
2023-02-19T19:32:43.151Z,68.94
2023-02-19T19:35:11.613Z,68.90
2023-02-19T19:37:39.633Z,69.18
2023-02-19T19:40:09.432Z,68.83
2023-02-19T19:42:37.582Z,70.12
2023-02-19T19:45:06.438Z,69.21
2023-02-19T19:47:34.599Z,69.36
2023-02-19T19:50:04.270Z,69.15
2023-02-19T19:52:32.473Z,69.33
2023-02-19T19:55:00.566Z,70.22
2023-02-19T19:57:28.684Z,69.41
2023-02-19T19:59:56.820Z,70.16
2023-02-19T20:02:24.867Z,70.18
2023-02-19T20:04:53.172Z,69.80
2023-02-19T20:07:22.554Z,69.11
2023-02-19T20:09:51.279Z,68.73
2023-02-19T20:12:20.052Z,68.44
2023-02-19T20:14:48.378Z,67.61
2023-02-19T20:17:16.714Z,67.84
2023-02-19T20:19:46.760Z,68.99
2023-02-19T20:22:14.977Z,68.21
2023-02-19T20:24:44.447Z,68.63
2023-02-19T20:27:12.599Z,68.66
2023-02-19T20:29:40.714Z,69.43
2023-02-19T20:32:09.129Z,69.17
2023-02-19T20:34:38.191Z,68.08
2023-02-19T20:37:06.757Z,68.43
2023-02-19T20:39:37.707Z,68.72
2023-02-19T20:42:07.815Z,69.35
2023-02-19T20:44:35.901Z,68.86
2023-02-19T20:47:04.125Z,69.18
2023-02-19T20:49:34.260Z,69.69
2023-02-19T20:52:05.926Z,69.91
2023-02-19T20:54:35.480Z,70.43
2023-02-19T20:57:06.714Z,69.34
2023-02-19T20:59:35.955Z,70.07
2023-02-19T21:02:05.318Z,68.92
2023-02-19T21:04:33.461Z,69.66
2023-02-19T21:07:01.713Z,71.02
2023-02-19T21:09:32.500Z,70.92
2023-02-19T21:12:00.548Z,71.38
2023-02-19T21:14:29.999Z,71.14
2023-02-19T21:16:58.074Z,70.57
2023-02-19T21:19:26.612Z,70.21
2023-02-19T21:21:54.700Z,70.16
2023-02-19T21:24:23.171Z,70.52
2023-02-19T21:26:51.522Z,70.46
2023-02-19T21:29:21.546Z,71.10
2023-02-19T21:31:54.580Z,70.79
2023-02-19T21:34:25.909Z,71.20
2023-02-19T21:36:54.971Z,70.04
2023-02-19T21:39:25.460Z,70.96
2023-02-19T21:41:53.580Z,71.01
2023-02-19T21:44:22.324Z,70.00
2023-02-19T21:46:51.824Z,70.20
2023-02-19T21:49:19.864Z,70.03
2023-02-19T21:51:49.758Z,70.11
2023-02-19T21:54:21.179Z,70.24
2023-02-19T21:56:49.757Z,70.26
2023-02-19T21:59:17.875Z,70.10
2023-02-19T22:01:46.262Z,69.91
2023-02-19T22:04:17.285Z,70.75
2023-02-19T22:06:45.851Z,70.34
2023-02-19T22:09:14.871Z,70.20
2023-02-19T22:11:43.317Z,70.52
2023-02-19T22:14:11.926Z,70.17
2023-02-19T22:16:42.817Z,70.58
2023-02-19T22:19:12.061Z,70.69
2023-02-19T22:21:45.389Z,71.26
2023-02-19T22:24:17.576Z,71.09
2023-02-19T22:26:46.065Z,70.69
2023-02-19T22:29:15.694Z,70.53
2023-02-19T22:31:44.695Z,70.33
2023-02-19T22:34:13.084Z,70.63
2023-02-19T22:36:43.258Z,70.58
2023-02-19T22:39:18.129Z,70.46
2023-02-19T22:41:46.404Z,70.47
2023-02-19T22:44:14.767Z,70.70
2023-02-19T22:46:48.229Z,71.88
2023-02-19T22:49:17.157Z,71.85
2023-02-19T22:51:52.329Z,71.18
2023-02-19T22:54:22.019Z,71.29
2023-02-19T22:56:50.009Z,71.25
2023-02-19T22:59:18.247Z,71.79
2023-02-19T23:01:46.448Z,72.11
2023-02-19T23:04:14.780Z,71.56
2023-02-19T23:06:44.071Z,71.14
2023-02-19T23:09:17.681Z,72.72
2023-02-19T23:11:45.695Z,73.45
2023-02-19T23:14:14.434Z,72.42
2023-02-19T23:16:43.053Z,72.65
2023-02-19T23:19:14.051Z,73.44
2023-02-19T23:21:44.304Z,72.51
2023-02-19T23:24:15.328Z,72.51
2023-02-19T23:26:44.716Z,72.50
2023-02-19T23:29:15.762Z,72.19
2023-02-19T23:31:43.917Z,72.16
2023-02-19T23:34:12.615Z,71.70
2023-02-19T23:36:44.936Z,73.03
2023-02-19T23:39:16.841Z,71.77
2023-02-19T23:41:48.634Z,72.77
2023-02-19T23:44:16.775Z,72.24
2023-02-19T23:46:44.996Z,72.76
2023-02-19T23:49:15.642Z,71.94
2023-02-19T23:51:46.664Z,72.01
2023-02-19T23:54:16.376Z,71.30
2023-02-19T23:56:44.382Z,71.65
2023-02-19T23:59:12.468Z,71.21
